Orleans, Brazil
Current Conditions -  °F | °C
As of 12:35 AM on Thursday 23 Oct 2014 (Local Time) from SBCM Reporting Station
Clear Clear  
Wind Chill: 63°   Ceiling: Unl
Heat Index: 63°   Visibility: 6mi
Dew Point: 59°   Wind: 7mph
Humidity: 88%   Direction: 70°ENE
Pressure: 30.15"   Gusts: NA
Location:  28.36°S, 49.29°W
Report Text: SBCM 230235Z 07006KT CAVOK 17/15 Q1021
Loading
Personal Weather Stations






























Interactive Weather Map
Tropical Storm Tracking
New forecast layout! Learn more

10-Day Weather Forecast

Advertisements
Track Severe Weather on mobile